Time;durP1;ratioP1;P1;durP2;ratioP2;P2;SDS_P1;SDS_P2;PMS_P1;PMS_P2;Temp;Humidity;BMP_temperature;BMP_pressure;BME280_temperature;BME280_humidity;BME280_pressure;Samples;Min_cycle;Max_cycle;Signal;HPM_P1;HPM_P2
2022/05/29 00:01:18;;;;;;;4.62;1.75;;;;;;;12.22;66.63;99044.33;1756313;81;21559;-43
2022/05/29 00:03:44;;;;;;;3.15;1.50;;;;;;;12.28;66.27;99051.55;1756302;81;21037;-43
2022/05/29 00:06:12;;;;;;;3.98;1.55;;;;;;;12.30;64.27;99046.50;1756270;81;20996;-43
2022/05/29 00:08:40;;;;;;;2.90;1.40;;;;;;;12.31;62.62;99048.86;1756233;81;20992;-43
2022/05/29 00:11:09;;;;;;;2.67;1.35;;;;;;;12.32;61.55;99050.42;1756314;81;21091;-43
2022/05/29 00:13:37;;;;;;;3.67;1.70;;;;;;;12.35;61.54;99063.82;1756463;81;21113;-43
2022/05/29 00:16:04;;;;;;;2.47;1.40;;;;;;;12.33;59.98;99064.22;1756507;81;21005;-43
2022/05/29 00:18:31;;;;;;;2.35;1.27;;;;;;;12.34;60.09;99058.20;1756325;81;20969;-43
2022/05/29 00:20:59;;;;;;;2.22;1.30;;;;;;;12.32;59.87;99050.42;1756292;81;21068;-43
2022/05/29 00:23:28;;;;;;;1.92;1.45;;;;;;;12.33;60.25;99045.19;1756351;81;21069;-43
2022/05/29 00:25:55;;;;;;;2.77;1.42;;;;;;;12.34;59.28;99049.48;1756752;81;21097;-43
2022/05/29 00:28:22;;;;;;;2.00;1.35;;;;;;;12.33;59.91;99034.31;1756124;81;21016;-43
2022/05/29 00:30:48;;;;;;;1.50;1.02;;;;;;;12.34;59.28;99041.32;1756122;81;20969;-43
2022/05/29 00:33:15;;;;;;;2.15;1.30;;;;;;;12.35;59.68;99034.70;1756035;81;21554;-43
2022/05/29 00:35:42;;;;;;;1.82;1.20;;;;;;;12.35;59.35;99034.70;1756205;81;21028;-43
2022/05/29 00:38:10;;;;;;;2.50;1.22;;;;;;;12.37;59.26;99035.69;1756221;81;23142;-43
2022/05/29 00:41:05;;;;;;;3.10;1.50;;;;;;;12.36;58.59;99042.28;1756494;81;21220;-43
2022/05/29 00:43:32;;;;;;;1.45;0.85;;;;;;;12.34;58.58;99037.25;1756225;81;20942;-42
2022/05/29 00:46:00;;;;;;;2.62;1.30;;;;;;;12.31;58.72;99037.98;1756152;81;21597;-43
2022/05/29 00:48:27;;;;;;;2.22;1.20;;;;;;;12.30;58.92;99041.85;1735059;81;21033;-43
2022/05/29 00:50:57;;;;;;;2.37;1.45;;;;;;;12.30;59.33;99052.73;1712599;83;21303;-43
2022/05/29 00:53:24;;;;;;;2.75;1.17;;;;;;;12.28;59.81;99057.78;1712722;83;21024;-43
2022/05/29 00:55:57;;;;;;;4.65;1.20;;;;;;;12.27;58.75;99061.64;1712551;83;20984;-43
2022/05/29 00:58:24;;;;;;;2.27;1.17;;;;;;;12.28;58.38;99063.21;1712666;83;21579;-43
2022/05/29 01:00:52;;;;;;;2.22;1.10;;;;;;;12.26;58.42;99066.09;1712561;83;21107;-43
2022/05/29 01:03:19;;;;;;;2.72;0.98;;;;;;;12.23;58.92;99060.84;1712501;83;21100;-43
2022/05/29 01:05:46;;;;;;;1.65;1.02;;;;;;;12.22;58.71;99067.43;1712583;83;20945;-43
2022/05/29 01:08:19;;;;;;;1.85;1.00;;;;;;;12.20;59.22;99067.02;1712550;83;21607;-43
2022/05/29 01:10:55;;;;;;;2.65;1.22;;;;;;;12.18;59.38;99069.34;1712753;83;21057;-43
2022/05/29 01:13:42;;;;;;;1.40;1.10;;;;;;;12.16;60.58;99075.72;1712513;83;21040;-43
2022/05/29 01:16:17;;;;;;;1.50;0.90;;;;;;;12.15;60.20;99082.34;1712345;83;21547;-43
2022/05/29 01:19:04;;;;;;;2.62;1.02;;;;;;;12.13;59.69;99075.91;1712421;83;21078;-43
2022/05/29 01:22:05;;;;;;;2.25;1.07;;;;;;;12.14;59.81;99084.84;1710837;83;21099;-43
2022/05/29 01:24:46;;;;;;;2.25;1.10;;;;;;;12.08;59.98;99072.19;1712450;83;28592;-43
2022/05/29 01:27:55;;;;;;;4.10;1.00;;;;;;;12.00;60.60;99076.01;1712519;83;21065;-43
2022/05/29 01:30:24;;;;;;;1.92;0.98;;;;;;;11.93;60.92;99073.79;1712643;83;21907;-43
2022/05/29 01:33:10;;;;;;;1.87;1.22;;;;;;;11.84;61.81;99086.91;1712856;83;21032;-43
2022/05/29 01:36:01;;;;;;;2.12;1.00;;;;;;;11.81;62.15;99090.38;1712673;83;21032;-43
2022/05/29 01:38:44;;;;;;;1.85;0.90;;;;;;;11.76;62.97;99113.98;1712289;83;20981;-43
2022/05/29 01:41:33;;;;;;;3.00;1.40;;;;;;;11.73;63.78;99116.67;1712770;83;21053;-43
2022/05/29 01:44:11;;;;;;;2.75;1.10;;;;;;;11.71;63.07;99108.10;1712820;83;21165;-43
2022/05/29 01:46:38;;;;;;;2.62;1.10;;;;;;;11.70;64.07;99124.97;1712129;83;21037;-42
2022/05/29 01:49:22;;;;;;;1.45;0.93;;;;;;;11.68;63.82;99114.26;1738674;81;21004;-43
2022/05/29 01:52:04;;;;;;;2.25;0.93;;;;;;;11.65;63.75;99100.86;1756424;81;21008;-43
2022/05/29 01:54:50;;;;;;;2.55;1.20;;;;;;;11.60;64.01;99111.27;1756757;81;20986;-42
2022/05/29 01:57:25;;;;;;;1.67;1.10;;;;;;;11.56;64.31;99118.03;1756237;81;21152;-43
2022/05/29 02:00:05;;;;;;;4.62;1.30;;;;;;;11.53;64.52;99110.61;1756184;81;21004;-43
2022/05/29 02:02:37;;;;;;;2.90;1.30;;;;;;;11.52;64.67;99112.36;1743267;81;21012;-43
2022/05/29 02:05:08;;;;;;;1.90;1.30;;;;;;;11.52;65.56;99118.55;1756331;81;21562;-43
2022/05/29 02:07:49;;;;;;;2.35;1.00;;;;;;;11.51;65.85;99115.65;1756033;81;21523;-42
2022/05/29 02:10:31;;;;;;;;;;;;;;;11.50;66.05;99120.08;1758925;81;21587;-42
2022/05/29 02:13:39;;;;;;;1.95;1.30;;;;;;;11.49;66.22;99118.52;1756331;81;20123;-43
2022/05/29 02:16:13;;;;;;;1.92;1.10;;;;;;;11.41;65.98;99127.16;1756132;81;21012;-43
2022/05/29 02:19:00;;;;;;;1.32;0.93;;;;;;;11.38;66.02;99123.03;1756020;81;21080;-43
2022/05/29 02:21:41;;;;;;;1.52;1.00;;;;;;;11.40;66.07;99128.88;1751495;81;21060;-43
2022/05/29 02:24:13;;;;;;;2.55;1.20;;;;;;;11.41;66.02;99125.80;1756173;81;21219;-43
2022/05/29 02:27:00;;;;;;;3.08;1.25;;;;;;;11.40;65.97;99119.38;1756486;81;20922;-43
2022/05/29 02:29:27;;;;;;;2.02;1.02;;;;;;;11.40;66.04;99124.23;1719984;83;21027;-42
2022/05/29 02:32:27;;;;;;;2.50;0.80;;;;;;;11.39;66.04;99104.24;1720163;83;20945;-43
2022/05/29 02:35:23;;;;;;;3.67;1.07;;;;;;;11.39;66.25;99117.81;1679282;85;21411;-42
2022/05/29 02:38:05;;;;;;;2.08;0.90;;;;;;;11.40;66.65;99122.09;1659260;86;21087;-43
2022/05/29 02:40:49;;;;;;;3.08;1.02;;;;;;;11.43;66.70;99111.27;1698447;83;20960;-43
2022/05/29 02:43:40;;;;;;;2.12;1.00;;;;;;;11.48;66.60;99112.30;1720055;83;21120;-43
2022/05/29 02:46:24;;;;;;;3.35;1.42;;;;;;;11.50;66.78;99114.08;1720209;83;21013;-43
2022/05/29 02:49:00;;;;;;;1.77;0.85;;;;;;;11.51;66.87;99110.22;1715450;83;21050;-43
2022/05/29 02:51:40;;;;;;;2.25;1.17;;;;;;;11.53;66.58;99117.39;1706960;83;21153;-43
2022/05/29 02:54:11;;;;;;;;;;;;;;;11.53;66.58;99122.04;1709777;84;21011;-43
2022/05/29 02:56:38;;;;;;;2.55;1.02;;;;;;;11.52;66.70;99123.97;1707466;84;20125;-43
2022/05/29 02:59:04;;;;;;;1.65;0.85;;;;;;;11.51;67.32;99124.36;1707313;84;20950;-43
2022/05/29 03:02:01;;;;;;;1.50;1.00;;;;;;;11.62;67.28;99117.87;1707335;83;21022;-43
2022/05/29 03:04:57;;;;;;;3.37;1.10;;;;;;;11.69;67.18;99117.97;1707279;83;21226;-43
2022/05/29 03:07:39;;;;;;;2.15;1.10;;;;;;;11.73;67.02;99122.10;1706919;84;21101;-43
2022/05/29 03:10:29;;;;;;;3.83;1.20;;;;;;;11.76;66.95;99122.73;1707398;84;20985;-42
2022/05/29 03:13:19;;;;;;;2.15;1.42;;;;;;;11.73;66.84;99124.24;1707451;84;20985;-43
2022/05/29 03:16:22;;;;;;;2.98;1.15;;;;;;;11.73;66.94;99115.31;1707296;84;21563;-43
2022/05/29 03:19:23;;;;;;;2.37;1.00;;;;;;;11.79;66.41;99115.76;1707113;83;21560;-43
2022/05/29 03:22:12;;;;;;;1.85;1.00;;;;;;;11.79;65.87;99117.12;1707081;84;21623;-43
2022/05/29 03:24:51;;;;;;;2.10;1.10;;;;;;;11.73;65.71;99123.46;1635007;84;21529;-43
2022/05/29 03:27:42;;;;;;;2.67;1.02;;;;;;;11.66;65.33;99122.80;1706664;84;21124;-43
2022/05/29 03:30:32;;;;;;;2.67;1.22;;;;;;;11.68;65.97;99122.41;1707403;83;21074;-43
2022/05/29 03:33:01;;;;;;;3.00;1.00;;;;;;;11.65;65.82;99125.30;1706660;83;22017;-43
2022/05/29 03:35:32;;;;;;;2.45;0.85;;;;;;;11.69;65.70;99133.48;1707318;84;21025;-43
2022/05/29 03:38:01;;;;;;;1.25;1.00;;;;;;;11.74;65.42;99126.39;1707177;84;21025;-43
2022/05/29 03:40:30;;;;;;;1.77;1.10;;;;;;;11.79;65.39;99137.48;1707256;84;21105;-43
2022/05/29 03:42:57;;;;;;;2.70;1.22;;;;;;;11.79;65.39;99138.84;1706990;84;21535;-43
2022/05/29 03:45:24;;;;;;;1.62;0.98;;;;;;;11.80;65.29;99145.27;1707259;84;21572;-43
2022/05/29 03:47:51;;;;;;;1.37;0.90;;;;;;;11.80;65.65;99146.63;1707089;84;21560;-43
2022/05/29 03:50:20;;;;;;;3.75;1.20;;;;;;;11.80;65.43;99148.56;1707090;84;21528;-43
2022/05/29 03:52:47;;;;;;;2.60;0.90;;;;;;;11.83;65.53;99151.88;1707096;84;21049;-43
2022/05/29 03:55:15;;;;;;;2.08;0.98;;;;;;;11.88;65.54;99148.26;1707076;83;21053;-43
2022/05/29 03:57:42;;;;;;;1.62;1.10;;;;;;;11.93;64.90;99145.78;1707075;84;21877;-43
2022/05/29 04:00:11;;;;;;;1.92;1.05;;;;;;;11.93;65.09;99155.28;1707032;83;21025;-43
2022/05/29 04:02:40;;;;;;;5.03;1.30;;;;;;;11.93;65.45;99152.56;1707430;83;21025;-43
2022/05/29 04:05:11;;;;;;;2.22;1.20;;;;;;;11.87;65.21;99162.20;1707190;83;21650;-43
2022/05/29 04:13:09;;;;;;;2.10;1.25;;;;;;;11.87;65.75;99156.77;1707408;84;21537;-42
2022/05/29 04:15:41;;;;;;;2.83;1.25;;;;;;;11.89;65.77;99159.91;1707384;84;20985;-43
2022/05/29 04:18:05;;;;;;;1.10;0.90;;;;;;;11.93;65.57;99166.16;1706988;84;21041;-42
2022/05/29 04:20:32;;;;;;;2.25;1.20;;;;;;;11.96;65.70;99162.68;1707217;84;21523;-43
2022/05/29 04:22:58;;;;;;;2.27;1.17;;;;;;;11.97;65.53;99160.17;1707763;84;21158;-43
2022/05/29 04:25:26;;;;;;;4.00;1.10;;;;;;;12.03;65.29;99165.48;1707573;84;20954;-43
2022/05/29 04:27:53;;;;;;;3.75;1.20;;;;;;;12.12;65.30;99167.31;1707487;84;20977;-43
2022/05/29 04:30:20;;;;;;;1.82;1.00;;;;;;;12.21;64.77;99167.78;1707608;84;21033;-42
2022/05/29 04:32:59;;;;;;;5.42;1.20;;;;;;;12.26;64.88;99168.80;1707471;84;21435;-43
2022/05/29 04:35:39;;;;;;;2.40;0.90;;;;;;;12.29;64.82;99166.70;1707258;84;23147;-43
2022/05/29 04:38:07;;;;;;;3.20;1.37;;;;;;;12.33;64.59;99168.09;1707219;84;20930;-43
2022/05/29 04:40:38;;;;;;;2.10;1.10;;;;;;;12.37;63.85;99177.05;1707097;84;21046;-43
2022/05/29 04:43:06;;;;;;;1.85;1.20;;;;;;;12.40;64.25;99174.36;1707263;83;20978;-43
2022/05/29 04:45:34;;;;;;;5.58;1.35;;;;;;;12.50;64.29;99181.04;1707267;84;21069;-43
2022/05/29 04:48:02;;;;;;;2.27;1.10;;;;;;;12.61;64.31;99182.70;1707355;84;21563;-43
2022/05/29 04:50:29;;;;;;;2.50;1.32;;;;;;;12.75;64.15;99182.59;1716987;83;20945;-43
2022/05/29 04:52:56;;;;;;;3.77;1.17;;;;;;;12.84;64.24;99178.96;1720313;83;20993;-43
2022/05/29 04:55:23;;;;;;;1.80;1.07;;;;;;;12.92;62.67;99177.87;1720395;83;21032;-43
2022/05/29 04:57:49;;;;;;;1.42;1.20;;;;;;;12.95;62.58;99192.06;1720677;83;21107;-43
2022/05/29 05:00:18;;;;;;;3.15;1.30;;;;;;;12.97;62.72;99191.88;1720142;83;21286;-43
2022/05/29 05:02:45;;;;;;;3.00;1.32;;;;;;;13.02;63.12;99198.93;1720426;83;21654;-43
2022/05/29 05:05:11;;;;;;;1.22;1.02;;;;;;;13.06;62.14;99193.70;1720589;83;21689;-43
2022/05/29 05:07:39;;;;;;;1.50;1.07;;;;;;;13.13;62.34;99199.00;1720160;83;20949;-43
2022/05/29 05:10:12;;;;;;;2.20;1.10;;;;;;;13.19;61.52;99202.93;1714950;83;21052;-43
2022/05/29 05:12:39;;;;;;;2.62;1.20;;;;;;;13.28;61.32;99201.43;1720274;83;21812;-43
2022/05/29 05:15:08;;;;;;;1.72;0.95;;;;;;;13.37;60.53;99195.63;1720571;83;21024;-43
2022/05/29 05:17:35;;;;;;;4.42;1.35;;;;;;;13.45;60.26;99194.52;1720470;83;21576;-43
2022/05/29 05:20:04;;;;;;;2.85;1.22;;;;;;;13.55;60.34;99202.55;1720469;83;21045;-43
2022/05/29 05:22:31;;;;;;;2.87;1.37;;;;;;;13.61;59.28;99203.71;1720623;83;21100;-43
2022/05/29 05:24:57;;;;;;;3.67;1.40;;;;;;;13.66;58.53;99193.81;1720862;83;21877;-43
2022/05/29 05:27:24;;;;;;;2.25;1.25;;;;;;;13.73;58.72;99193.85;1720437;83;21044;-43
2022/05/29 05:29:51;;;;;;;3.52;1.45;;;;;;;13.79;57.42;99198.55;1720760;83;21531;-43
2022/05/29 05:32:18;;;;;;;2.45;1.40;;;;;;;13.84;55.64;99201.48;1720399;83;21072;-43
2022/05/29 05:34:44;;;;;;;2.02;1.07;;;;;;;13.90;56.87;99202.07;1720572;83;21049;-43
2022/05/29 05:37:13;;;;;;;2.98;1.20;;;;;;;13.96;55.21;99202.48;1720334;83;21151;-43
2022/05/29 05:39:40;;;;;;;4.00;1.50;;;;;;;14.00;55.30;99200.54;1720342;83;21610;-43
2022/05/29 05:42:08;;;;;;;1.82;1.02;;;;;;;14.06;55.22;99204.45;1720144;83;21051;-43
2022/05/29 05:44:34;;;;;;;2.50;1.05;;;;;;;14.12;55.59;99211.09;1720392;83;21061;-43
2022/05/29 05:47:03;;;;;;;2.17;1.10;;;;;;;14.21;54.88;99215.59;1720186;83;21087;-43
2022/05/29 05:49:30;;;;;;;1.98;1.10;;;;;;;14.31;54.45;99209.37;1716424;83;21213;-44
2022/05/29 05:52:00;;;;;;;3.12;1.20;;;;;;;14.41;54.65;99210.59;1699292;84;21058;-44
2022/05/29 05:54:31;;;;;;;2.58;1.20;;;;;;;14.49;53.53;99218.18;1693358;84;21100;-43
2022/05/29 05:56:58;;;;;;;2.52;1.00;;;;;;;14.56;53.10;99208.66;1686877;85;21310;-44
2022/05/29 05:59:26;;;;;;;3.20;0.90;;;;;;;14.62;52.55;99207.85;1686756;85;21108;-43
2022/05/29 06:01:53;;;;;;;1.25;0.90;;;;;;;14.70;51.07;99205.92;1686828;85;21198;-43
2022/05/29 06:04:19;;;;;;;1.72;1.00;;;;;;;14.76;50.25;99209.21;1686834;85;21060;-44
2022/05/29 06:06:46;;;;;;;1.98;0.82;;;;;;;14.78;48.53;99206.89;1686878;85;20957;-44
2022/05/29 06:09:13;;;;;;;3.22;0.90;;;;;;;14.79;48.48;99210.40;1686680;85;21116;-44
2022/05/29 06:11:41;;;;;;;3.58;1.30;;;;;;;14.83;49.86;99205.70;1686775;85;21032;-43
2022/05/29 06:14:08;;;;;;;2.10;1.10;;;;;;;14.91;50.01;99207.25;1687049;85;21587;-43
2022/05/29 06:16:36;;;;;;;3.37;1.05;;;;;;;15.02;49.89;99218.16;1686940;85;21037;-44
2022/05/29 06:19:05;;;;;;;1.22;0.70;;;;;;;15.12;50.04;99212.69;1686977;85;20966;-43
2022/05/29 06:21:32;;;;;;;3.05;1.40;;;;;;;15.22;49.42;99213.84;1687014;85;21077;-43
2022/05/29 06:23:58;;;;;;;2.92;1.17;;;;;;;15.27;48.75;99214.02;1687065;85;21540;-43
2022/05/29 06:26:25;;;;;;;2.55;1.05;;;;;;;15.30;49.53;99217.36;1687159;85;21335;-43
2022/05/29 06:28:52;;;;;;;2.65;1.20;;;;;;;15.36;48.25;99222.59;1686783;85;21437;-43
2022/05/29 06:31:19;;;;;;;5.00;1.25;;;;;;;15.37;46.71;99222.78;1686958;85;21274;-44
2022/05/29 06:33:46;;;;;;;2.22;1.25;;;;;;;15.34;47.51;99224.95;1686566;85;21061;-44
2022/05/29 06:36:20;;;;;;;2.55;1.32;;;;;;;15.38;48.30;99221.62;1686789;85;20997;-44
2022/05/29 06:38:47;;;;;;;1.27;0.82;;;;;;;15.46;47.98;99215.73;1686995;85;21858;-44
2022/05/29 06:41:15;;;;;;;2.22;0.95;;;;;;;15.51;46.22;99222.19;1679215;85;21591;-44
2022/05/29 06:43:43;;;;;;;4.07;1.10;;;;;;;15.54;46.63;99217.90;1659543;86;21017;-44
2022/05/29 06:46:10;;;;;;;2.00;1.10;;;;;;;15.60;47.17;99223.13;1705051;84;21085;-44
2022/05/29 06:48:40;;;;;;;1.77;0.90;;;;;;;15.67;45.61;99221.75;1704977;83;21009;-44
2022/05/29 06:51:11;;;;;;;1.55;0.70;;;;;;;15.66;44.58;99220.18;1705007;83;21236;-44
2022/05/29 06:53:39;;;;;;;4.40;1.30;;;;;;;15.68;45.74;99230.72;1704953;84;20942;-43
2022/05/29 06:56:06;;;;;;;2.85;1.10;;;;;;;15.70;45.66;99229.14;1705084;84;20977;-43
2022/05/29 06:58:33;;;;;;;3.12;0.90;;;;;;;15.76;45.87;99226.19;1705093;84;21046;-43
2022/05/29 07:06:59;;;;;;;3.42;1.05;;;;;;;16.08;44.01;99227.39;1705072;84;21028;-43
2022/05/29 07:09:30;;;;;;;1.52;0.80;;;;;;;16.12;43.70;99222.67;1705051;84;21587;-43
2022/05/29 07:12:10;;;;;;;6.03;1.17;;;;;;;16.19;44.27;99226.75;1705126;84;21531;-43
2022/05/29 07:14:43;;;;;;;2.67;0.90;;;;;;;16.23;44.15;99236.30;1705000;83;21017;-43
2022/05/29 07:17:11;;;;;;;2.45;1.10;;;;;;;16.24;43.55;99234.54;1705199;84;21489;-44
2022/05/29 07:19:38;;;;;;;3.77;1.20;;;;;;;16.31;44.44;99235.09;1705156;84;21559;-43
2022/05/29 07:22:06;;;;;;;3.10;1.00;;;;;;;16.41;44.82;99230.90;1705389;84;21493;-44
2022/05/29 07:24:35;;;;;;;2.30;1.00;;;;;;;16.54;43.27;99246.27;1705310;84;21089;-44
2022/05/29 07:27:02;;;;;;;1.17;0.93;;;;;;;16.59;41.44;99245.87;1705326;84;21033;-43
2022/05/29 07:29:29;;;;;;;1.35;0.93;;;;;;;16.61;41.46;99248.97;1705220;84;22371;-43
2022/05/29 07:31:56;;;;;;;3.12;1.15;;;;;;;16.67;41.56;99239.75;1704882;84;21500;-43
2022/05/29 07:34:24;;;;;;;1.45;0.85;;;;;;;16.75;40.83;99242.02;1705073;84;21073;-43
2022/05/29 07:36:51;;;;;;;1.40;0.90;;;;;;;16.83;41.82;99243.53;1705067;84;20942;-43
2022/05/29 07:39:20;;;;;;;1.25;0.90;;;;;;;16.94;42.07;99240.09;1705048;84;21021;-44
2022/05/29 07:44:32;;;;;;;2.67;0.90;;;;;;;17.11;42.53;99220.59;1705018;84;21013;-44
2022/05/29 07:46:59;;;;;;;1.80;0.90;;;;;;;17.33;41.56;99249.31;1705016;84;21591;-43
2022/05/29 07:49:28;;;;;;;1.57;0.98;;;;;;;17.39;41.56;99244.95;1705206;84;21033;-44
2022/05/29 07:51:55;;;;;;;1.32;0.72;;;;;;;17.50;41.45;99249.55;1704863;83;21984;-44
2022/05/29 07:54:25;;;;;;;2.45;1.00;;;;;;;17.55;40.65;99243.03;1705033;84;21302;-44
2022/05/29 07:56:50;;;;;;;2.77;1.15;;;;;;;17.64;41.59;99243.93;1704756;84;21504;-44
2022/05/29 07:59:19;;;;;;;3.30;1.05;;;;;;;17.77;40.13;99243.58;1705097;84;20958;-44
2022/05/29 08:01:46;;;;;;;2.40;1.32;;;;;;;17.87;41.31;99249.52;1704997;84;21033;-44
2022/05/29 08:05:23;;;;;;;2.40;1.00;;;;;;;18.14;39.47;99244.09;1778946;79;22503;-43
2022/05/29 08:07:50;;;;;;;2.45;0.95;;;;;;;18.18;40.53;99253.05;1738572;82;20982;-44
2022/05/29 08:10:20;;;;;;;2.95;1.00;;;;;;;18.28;39.77;99246.64;1738626;82;21018;-44
2022/05/29 08:12:48;;;;;;;3.05;1.00;;;;;;;18.39;40.78;99258.25;1738583;82;21025;-44
2022/05/29 08:15:15;;;;;;;2.27;0.98;;;;;;;18.50;40.40;99256.11;1738448;82;21050;-44
2022/05/29 08:17:43;;;;;;;1.90;1.00;;;;;;;18.61;38.46;99271.87;1738394;82;20951;-44
2022/05/29 08:20:11;;;;;;;1.87;1.07;;;;;;;18.60;37.76;99259.92;1738429;82;21323;-44
2022/05/29 08:22:38;;;;;;;2.62;0.90;;;;;;;18.59;37.70;99252.87;1738400;82;21861;-44
2022/05/29 08:30:46;;;;;;;1.55;0.80;;;;;;;18.67;35.75;99252.95;1738578;82;20978;-44
2022/05/29 08:33:18;;;;;;;3.85;0.93;;;;;;;18.65;35.19;99260.83;1737922;82;21058;-44
2022/05/29 08:35:49;;;;;;;4.72;0.90;;;;;;;18.63;35.87;99272.24;1738803;82;21230;-44
2022/05/29 08:38:17;;;;;;;6.15;0.90;;;;;;;18.65;35.24;99265.72;1738572;82;20973;-44
2022/05/29 08:40:49;;;;;;;0.78;0.65;;;;;;;18.72;35.22;99258.58;1739109;82;21081;-44
2022/05/29 08:43:38;;;;;;;2.67;0.80;;;;;;;18.80;34.54;99268.25;1738583;82;21588;-44
2022/05/29 08:46:15;;;;;;;1.10;0.75;;;;;;;18.86;34.29;99276.20;1738894;82;21103;-44
2022/05/29 08:48:42;;;;;;;4.05;0.88;;;;;;;18.90;32.61;99265.92;1738432;82;21242;-44
2022/05/29 08:51:28;;;;;;;4.00;0.98;;;;;;;18.88;33.83;99266.95;1738453;82;20962;-44
2022/05/29 08:54:11;;;;;;;2.12;0.90;;;;;;;18.87;33.58;99270.30;1738613;82;21030;-44
2022/05/29 08:56:49;;;;;;;2.15;0.93;;;;;;;18.87;34.17;99274.42;1737442;82;21066;-44
2022/05/29 08:59:28;;;;;;;1.90;0.88;;;;;;;18.91;33.90;99258.66;1738225;82;21022;-43
2022/05/29 09:02:08;;;;;;;1.82;0.82;;;;;;;18.97;34.47;99261.70;1735958;82;21088;-44
2022/05/29 09:04:47;;;;;;;1.12;0.70;;;;;;;19.01;34.33;99265.94;1746884;81;21038;-43
2022/05/29 09:07:18;;;;;;;2.60;0.80;;;;;;;19.10;33.04;99266.17;1754383;81;21291;-44
2022/05/29 09:09:58;;;;;;;1.67;0.80;;;;;;;19.18;33.00;99266.03;1754305;81;20974;-44
2022/05/29 09:12:42;;;;;;;5.85;0.93;;;;;;;19.23;33.17;99262.81;1754260;81;21122;-44
2022/05/29 09:15:35;;;;;;;4.55;0.88;;;;;;;19.26;32.87;99261.98;1754279;81;21241;-44
2022/05/29 09:18:23;;;;;;;1.57;0.70;;;;;;;19.27;32.60;99264.89;1753657;81;20923;-43
2022/05/29 09:21:07;;;;;;;2.27;1.00;;;;;;;19.31;33.27;99270.53;1753573;81;20963;-44
2022/05/29 09:23:49;;;;;;;1.42;0.70;;;;;;;19.38;33.74;99275.89;1753329;81;21058;-44
2022/05/29 09:26:18;;;;;;;2.10;0.90;;;;;;;19.48;34.08;99276.32;1753350;81;21552;-43
2022/05/29 09:28:45;;;;;;;1.47;0.80;;;;;;;19.62;33.59;99269.77;1754056;81;21118;-44
2022/05/29 09:31:20;;;;;;;2.92;1.00;;;;;;;19.75;33.62;99273.44;1753897;81;21082;-44
2022/05/29 09:33:47;;;;;;;1.75;0.90;;;;;;;19.86;33.06;99266.36;1753775;81;21002;-43
2022/05/29 09:37:02;;;;;;;2.17;1.10;;;;;;;19.87;32.94;99263.19;1753804;81;21038;-44
2022/05/29 09:39:41;;;;;;;1.80;0.88;;;;;;;19.79;33.76;99267.89;1753962;81;20998;-44
2022/05/29 09:42:39;;;;;;;4.97;1.10;;;;;;;19.58;33.26;99264.95;1754302;81;21268;-44
2022/05/29 09:45:32;;;;;;;2.90;1.10;;;;;;;19.44;33.53;99257.74;1753768;81;20959;-44
2022/05/29 09:50:56;;;;;;;1.72;0.60;;;;;;;19.28;33.93;99270.57;1753863;81;21042;-43
2022/05/29 09:53:30;;;;;;;2.58;0.82;;;;;;;19.34;33.40;99265.56;1754167;81;21533;-44
2022/05/29 09:56:03;;;;;;;1.50;0.80;;;;;;;19.45;34.44;99275.80;1754038;81;21565;-44
2022/05/29 09:58:46;;;;;;;1.35;0.70;;;;;;;19.59;33.19;99269.85;1753842;81;20947;-43
2022/05/29 10:01:12;;;;;;;0.85;0.75;;;;;;;19.74;33.11;99256.00;1753988;81;21013;-43
2022/05/29 10:03:43;;;;;;;2.15;1.07;;;;;;;19.88;32.62;99259.84;1726447;81;21066;-43
2022/05/29 10:06:18;;;;;;;4.72;0.78;;;;;;;20.01;32.76;99261.34;1757044;81;21046;-44
2022/05/29 10:08:45;;;;;;;2.52;0.90;;;;;;;20.05;33.04;99260.66;1757027;81;21289;-43
2022/05/29 10:11:21;;;;;;;1.80;0.82;;;;;;;20.09;32.42;99267.64;1756816;81;21022;-43
2022/05/29 10:13:50;;;;;;;1.87;0.95;;;;;;;20.17;32.62;99262.77;1756597;81;21007;-43
2022/05/29 10:16:37;;;;;;;2.12;1.10;;;;;;;20.31;32.85;99266.02;1757173;81;21039;-44
2022/05/29 10:19:14;;;;;;;1.47;0.90;;;;;;;20.48;31.68;99266.06;1756835;81;21284;-44
2022/05/29 10:21:48;;;;;;;2.58;0.82;;;;;;;20.60;31.97;99265.38;1756981;81;21173;-44
2022/05/29 10:24:35;;;;;;;1.07;0.80;;;;;;;20.79;32.36;99270.03;1756578;81;21592;-44
2022/05/29 10:27:01;;;;;;;2.22;1.00;;;;;;;20.97;32.48;99268.99;1756177;81;21540;-44
2022/05/29 10:29:37;;;;;;;1.32;0.80;;;;;;;21.18;31.59;99260.83;1756841;81;21045;-44
2022/05/29 10:32:10;;;;;;;2.35;1.05;;;;;;;21.50;31.69;99266.88;1756734;81;21024;-44
2022/05/29 10:34:40;;;;;;;3.10;0.80;;;;;;;21.77;30.71;99267.32;1718212;83;21245;-44
2022/05/29 10:37:30;;;;;;;2.02;1.07;;;;;;;21.84;32.26;99267.10;1720114;83;21044;-44
2022/05/29 10:40:14;;;;;;;2.37;1.10;;;;;;;21.93;31.59;99264.50;1693423;83;21617;-44
2022/05/29 10:42:45;;;;;;;3.02;1.00;;;;;;;22.05;32.56;99265.15;1719797;83;21028;-44
2022/05/29 10:45:20;;;;;;;1.80;1.02;;;;;;;22.11;30.99;99266.77;1719762;83;21068;-44
2022/05/29 10:48:05;;;;;;;2.02;0.80;;;;;;;22.01;31.01;99266.47;1720305;83;21143;-44
2022/05/29 10:51:00;;;;;;;1.87;0.90;;;;;;;21.79;30.30;99258.58;1720196;83;20944;-44
2022/05/29 10:53:42;;;;;;;2.25;0.80;;;;;;;21.51;31.18;99264.28;1720177;83;20965;-44
2022/05/29 10:56:39;;;;;;;1.40;0.80;;;;;;;21.48;32.65;99264.56;1720226;83;20960;-44
2022/05/29 10:59:50;;;;;;;3.70;0.78;;;;;;;21.70;32.12;99261.98;1720381;83;21486;-44
2022/05/29 11:05:58;;;;;;;1.82;1.00;;;;;;;22.21;30.28;99260.76;1716465;83;21478;-44
2022/05/29 11:08:39;;;;;;;3.12;0.98;;;;;;;22.44;29.14;99256.30;1714956;83;20992;-44
2022/05/29 11:11:31;;;;;;;3.17;1.00;;;;;;;22.49;28.85;99248.84;1715258;83;21032;-44
2022/05/29 11:14:27;;;;;;;2.35;0.90;;;;;;;22.36;28.64;99249.45;1751147;82;21645;-44
2022/05/29 11:17:14;;;;;;;1.27;0.75;;;;;;;22.28;29.26;99250.87;1714943;83;21096;-44
2022/05/29 11:19:52;;;;;;;1.50;0.95;;;;;;;22.36;30.27;99252.22;1751023;81;21505;-44
2022/05/29 11:22:38;;;;;;;2.12;1.10;;;;;;;22.52;29.83;99257.02;1751103;82;20965;-44
2022/05/29 11:25:48;;;;;;;2.02;0.90;;;;;;;22.51;30.34;99260.23;1750156;80;21555;-44
2022/05/29 11:28:39;;;;;;;;;;;;;;;22.40;29.42;99259.17;1723681;83;21052;-42
2022/05/29 11:31:23;;;;;;;0.90;0.78;;;;;;;22.49;30.20;99254.36;1670995;85;23010;-42
2022/05/29 11:34:36;;;;;;;2.67;1.27;;;;;;;22.80;28.95;99251.20;1713115;83;21007;-42
2022/05/29 11:37:35;;;;;;;2.30;0.80;;;;;;;23.21;28.01;99254.39;1720868;83;21009;-42
2022/05/29 11:40:17;;;;;;;1.47;0.70;;;;;;;23.45;27.26;99258.93;1685429;85;21020;-42
2022/05/29 11:42:56;;;;;;;2.30;1.00;;;;;;;23.76;27.36;99252.88;1721084;83;21057;-42
2022/05/29 11:51:25;;;;;;;1.75;0.85;;;;;;;24.58;27.97;99239.47;1686269;85;21110;-42
2022/05/29 11:54:04;;;;;;;1.45;0.88;;;;;;;24.77;27.40;99240.91;1720890;83;21422;-43
2022/05/29 11:56:39;;;;;;;2.13;1.20;;;;;;;24.84;26.19;99237.83;1686343;85;21056;-43
2022/05/29 11:59:28;;;;;;;1.95;0.90;;;;;;;24.92;26.39;99237.73;1686038;85;21258;-43
2022/05/29 12:02:13;;;;;;;1.62;0.95;;;;;;;25.03;25.77;99242.20;1720526;83;23746;-43
2022/05/29 12:04:44;;;;;;;1.85;0.90;;;;;;;25.00;25.22;99237.59;1716900;83;21100;-43
2022/05/29 12:07:29;;;;;;;2.37;1.00;;;;;;;25.18;25.70;99231.28;1725825;82;21076;-43
2022/05/29 12:10:19;;;;;;;1.95;1.12;;;;;;;25.57;25.21;99227.61;1710248;83;20984;-43
2022/05/29 12:12:50;;;;;;;;;;;;;;;25.93;24.77;99233.12;1693956;84;21567;-43
2022/05/29 12:15:19;;;;;;;4.60;1.15;;;;;;;26.03;24.55;99229.70;1674102;85;20160;-43
2022/05/29 12:17:58;;;;;;;2.60;0.90;;;;;;;25.94;24.02;99232.51;1674100;85;21538;-43
2022/05/29 12:20:54;;;;;;;1.60;0.85;;;;;;;25.95;24.49;99226.46;1673829;85;21041;-43
2022/05/29 12:23:34;;;;;;;1.70;0.70;;;;;;;26.14;25.12;99220.23;1674136;85;21097;-43
2022/05/29 12:26:08;;;;;;;1.25;0.62;;;;;;;26.48;24.07;99221.08;1674190;85;21178;-43
2022/05/29 12:28:57;;;;;;;1.70;0.78;;;;;;;26.87;23.76;99225.50;1674113;85;21596;-43
2022/05/29 12:31:52;;;;;;;1.67;0.80;;;;;;;27.37;22.57;99234.11;1674394;85;21105;-43
2022/05/29 12:34:33;;;;;;;2.22;0.90;;;;;;;27.66;23.13;99231.41;1673807;85;21050;-43
2022/05/29 12:37:43;;;;;;;1.62;0.82;;;;;;;27.74;22.83;99224.86;1673857;85;21017;-43
2022/05/29 12:40:42;;;;;;;2.17;0.82;;;;;;;27.55;23.64;99231.97;1666318;85;21528;-43
2022/05/29 12:43:18;;;;;;;;;;;;;;;27.20;22.56;99234.57;1676055;85;21521;-43
2022/05/29 12:45:51;;;;;;;1.00;0.80;;;;;;;26.97;23.29;99233.16;1673450;85;20218;-43